Grano, North Dakota
Current Conditions -  °F | °C
As of 10:58 PM on Friday 24 Oct 2014 (Local Time) from KMIB Reporting Station
Clear Clear  
Wind Chill: 36°   Ceiling: Unl
Heat Index: 43°   Visibility: 10mi
Dew Point: 31°   Wind: 13mph
Humidity: 62%   Direction: 260°W
Pressure: 29.99"   Gusts: NA
Location:  48.6236°N, 101.367°W
Report Text: KMIB 250358Z AUTO 26011KT 10SM CLR 06/M01 A2999 RMK AO2 SLP166 T00611006 $
Loading
Personal Weather Stations






























Interactive Weather Map
Tropical Storm Tracking
New forecast layout! Learn more

10-Day Weather Forecast

Advertisements
Track Severe Weather on mobile